sensor_id;sensor_type;location;lat;lon;timestamp;temperature;humidity
71514;DHT22;59335;46.652;21.272;2022-09-03T00:01:37;26.14;50.30
71514;DHT22;59335;46.652;21.272;2022-09-03T00:04:57;26.16;50.21
71514;DHT22;59335;46.652;21.272;2022-09-03T00:11:29;26.21;50.00
71514;DHT22;59335;46.652;21.272;2022-09-03T00:14:38;26.18;50.12
71514;DHT22;59335;46.652;21.272;2022-09-03T00:18:13;26.20;50.09
71514;DHT22;59335;46.652;21.272;2022-09-03T00:21:29;26.13;50.19
71514;DHT22;59335;46.652;21.272;2022-09-03T00:24:35;26.10;50.21
71514;DHT22;59335;46.652;21.272;2022-09-03T00:27:42;26.14;50.19
71514;DHT22;59335;46.652;21.272;2022-09-03T00:31:01;26.13;50.16
71514;DHT22;59335;46.652;21.272;2022-09-03T00:34:33;26.13;50.21
71514;DHT22;59335;46.652;21.272;2022-09-03T00:37:36;26.13;50.14
71514;DHT22;59335;46.652;21.272;2022-09-03T00:47:45;26.14;50.01
71514;DHT22;59335;46.652;21.272;2022-09-03T00:58:08;26.17;49.96
71514;DHT22;59335;46.652;21.272;2022-09-03T01:01:17;26.14;49.96
71514;DHT22;59335;46.652;21.272;2022-09-03T01:07:47;26.13;49.98
71514;DHT22;59335;46.652;21.272;2022-09-03T01:11:28;26.13;49.91
71514;DHT22;59335;46.652;21.272;2022-09-03T01:21:25;26.12;49.91
71514;DHT22;59335;46.652;21.272;2022-09-03T01:24:52;26.10;49.96
71514;DHT22;59335;46.652;21.272;2022-09-03T01:28:05;26.12;49.87
71514;DHT22;59335;46.652;21.272;2022-09-03T01:31:21;26.12;49.84
71514;DHT22;59335;46.652;21.272;2022-09-03T01:41:34;26.12;49.78
71514;DHT22;59335;46.652;21.272;2022-09-03T01:48:43;26.18;49.71
71514;DHT22;59335;46.652;21.272;2022-09-03T01:52:02;26.14;49.73
71514;DHT22;59335;46.652;21.272;2022-09-03T01:55:36;26.14;49.72
71514;DHT22;59335;46.652;21.272;2022-09-03T01:58:44;26.13;49.77
71514;DHT22;59335;46.652;21.272;2022-09-03T02:01:55;26.14;49.69
71514;DHT22;59335;46.652;21.272;2022-09-03T02:05:19;26.16;49.64
71514;DHT22;59335;46.652;21.272;2022-09-03T02:08:26;26.16;49.64
71514;DHT22;59335;46.652;21.272;2022-09-03T02:11:29;26.13;49.70
71514;DHT22;59335;46.652;21.272;2022-09-03T02:14:32;26.07;49.79
71514;DHT22;59335;46.652;21.272;2022-09-03T02:17:35;26.09;49.75
71514;DHT22;59335;46.652;21.272;2022-09-03T02:20:38;26.12;49.70
71514;DHT22;59335;46.652;21.272;2022-09-03T02:23:41;26.13;49.65
71514;DHT22;59335;46.652;21.272;2022-09-03T02:26:45;26.17;49.64
71514;DHT22;59335;46.652;21.272;2022-09-03T02:29:48;26.16;49.58
71514;DHT22;59335;46.652;21.272;2022-09-03T02:32:50;26.13;49.68
71514;DHT22;59335;46.652;21.272;2022-09-03T02:35:53;26.16;49.57
71514;DHT22;59335;46.652;21.272;2022-09-03T02:38:56;26.12;49.60
71514;DHT22;59335;46.652;21.272;2022-09-03T02:41:59;26.13;49.56
71514;DHT22;59335;46.652;21.272;2022-09-03T02:48:26;26.10;49.63
71514;DHT22;59335;46.652;21.272;2022-09-03T02:51:38;26.13;49.60
71514;DHT22;59335;46.652;21.272;2022-09-03T02:54:43;26.14;49.57
71514;DHT22;59335;46.652;21.272;2022-09-03T02:57:47;26.13;49.56
71514;DHT22;59335;46.652;21.272;2022-09-03T03:00:50;26.13;49.54
71514;DHT22;59335;46.652;21.272;2022-09-03T03:03:53;26.14;49.55
71514;DHT22;59335;46.652;21.272;2022-09-03T03:06:56;26.09;49.60
71514;DHT22;59335;46.652;21.272;2022-09-03T03:09:58;26.14;49.56
71514;DHT22;59335;46.652;21.272;2022-09-03T03:13:01;26.12;49.50
71514;DHT22;59335;46.652;21.272;2022-09-03T03:16:04;26.13;49.49
71514;DHT22;59335;46.652;21.272;2022-09-03T03:19:10;26.14;49.47
71514;DHT22;59335;46.652;21.272;2022-09-03T03:22:13;26.14;49.45
71514;DHT22;59335;46.652;21.272;2022-09-03T03:25:15;26.13;49.50
71514;DHT22;59335;46.652;21.272;2022-09-03T03:28:18;26.12;49.53
71514;DHT22;59335;46.652;21.272;2022-09-03T03:31:21;26.13;49.44
71514;DHT22;59335;46.652;21.272;2022-09-03T03:34:24;26.13;49.43
71514;DHT22;59335;46.652;21.272;2022-09-03T03:37:27;26.13;49.47
71514;DHT22;59335;46.652;21.272;2022-09-03T03:40:30;26.10;49.49
71514;DHT22;59335;46.652;21.272;2022-09-03T03:43:32;26.12;49.44
71514;DHT22;59335;46.652;21.272;2022-09-03T03:46:38;26.10;49.41
71514;DHT22;59335;46.652;21.272;2022-09-03T03:49:40;26.09;49.51
71514;DHT22;59335;46.652;21.272;2022-09-03T03:52:43;26.13;49.36
71514;DHT22;59335;46.652;21.272;2022-09-03T03:56:00;26.12;49.38
71514;DHT22;59335;46.652;21.272;2022-09-03T03:59:03;26.09;49.37
71514;DHT22;59335;46.652;21.272;2022-09-03T04:02:06;26.12;49.33
71514;DHT22;59335;46.652;21.272;2022-09-03T04:05:09;26.12;49.40
71514;DHT22;59335;46.652;21.272;2022-09-03T04:08:12;26.09;49.40
71514;DHT22;59335;46.652;21.272;2022-09-03T04:11:20;26.13;49.34
71514;DHT22;59335;46.652;21.272;2022-09-03T04:14:23;26.09;49.30
71514;DHT22;59335;46.652;21.272;2022-09-03T04:17:29;26.10;49.34
71514;DHT22;59335;46.652;21.272;2022-09-03T04:20:32;26.09;49.30
71514;DHT22;59335;46.652;21.272;2022-09-03T04:23:40;26.16;49.19
71514;DHT22;59335;46.652;21.272;2022-09-03T04:26:43;26.12;49.25
71514;DHT22;59335;46.652;21.272;2022-09-03T04:29:45;26.12;49.29
71514;DHT22;59335;46.652;21.272;2022-09-03T04:32:49;26.12;49.20
71514;DHT22;59335;46.652;21.272;2022-09-03T04:39:06;26.12;49.21
71514;DHT22;59335;46.652;21.272;2022-09-03T04:42:09;26.14;49.23
71514;DHT22;59335;46.652;21.272;2022-09-03T04:45:11;26.10;49.26
71514;DHT22;59335;46.652;21.272;2022-09-03T04:48:20;26.13;49.19
71514;DHT22;59335;46.652;21.272;2022-09-03T04:51:24;26.12;49.21
71514;DHT22;59335;46.652;21.272;2022-09-03T04:54:28;26.09;49.29
71514;DHT22;59335;46.652;21.272;2022-09-03T04:57:32;26.13;49.14
71514;DHT22;59335;46.652;21.272;2022-09-03T05:00:39;26.09;49.21
71514;DHT22;59335;46.652;21.272;2022-09-03T05:03:42;26.12;49.15
71514;DHT22;59335;46.652;21.272;2022-09-03T05:06:44;26.13;49.13
71514;DHT22;59335;46.652;21.272;2022-09-03T05:09:47;26.14;49.12
71514;DHT22;59335;46.652;21.272;2022-09-03T05:13:04;26.12;49.13
71514;DHT22;59335;46.652;21.272;2022-09-03T05:16:09;26.10;49.19
71514;DHT22;59335;46.652;21.272;2022-09-03T05:19:12;26.12;49.08
71514;DHT22;59335;46.652;21.272;2022-09-03T05:22:15;26.12;49.07
71514;DHT22;59335;46.652;21.272;2022-09-03T05:25:23;26.13;49.04
71514;DHT22;59335;46.652;21.272;2022-09-03T05:28:27;26.12;49.10
71514;DHT22;59335;46.652;21.272;2022-09-03T05:31:32;26.09;49.15
71514;DHT22;59335;46.652;21.272;2022-09-03T05:34:35;26.14;48.91
71514;DHT22;59335;46.652;21.272;2022-09-03T05:37:39;26.13;49.03
71514;DHT22;59335;46.652;21.272;2022-09-03T05:40:42;26.12;49.06
71514;DHT22;59335;46.652;21.272;2022-09-03T05:43:47;26.12;49.04
71514;DHT22;59335;46.652;21.272;2022-09-03T05:46:56;26.16;48.97
71514;DHT22;59335;46.652;21.272;2022-09-03T05:49:59;26.16;48.95
71514;DHT22;59335;46.652;21.272;2022-09-03T05:53:01;26.13;49.05
71514;DHT22;59335;46.652;21.272;2022-09-03T05:56:07;26.12;49.07
71514;DHT22;59335;46.652;21.272;2022-09-03T05:59:12;26.17;48.96
71514;DHT22;59335;46.652;21.272;2022-09-03T06:02:15;26.20;48.91
71514;DHT22;59335;46.652;21.272;2022-09-03T06:05:20;26.18;48.86
71514;DHT22;59335;46.652;21.272;2022-09-03T06:08:23;26.23;48.80
71514;DHT22;59335;46.652;21.272;2022-09-03T06:11:26;26.23;48.75
71514;DHT22;59335;46.652;21.272;2022-09-03T06:14:30;26.30;48.62
71514;DHT22;59335;46.652;21.272;2022-09-03T06:17:33;26.33;48.55
71514;DHT22;59335;46.652;21.272;2022-09-03T06:20:35;26.33;48.59
71514;DHT22;59335;46.652;21.272;2022-09-03T06:23:38;26.38;48.43
71514;DHT22;59335;46.652;21.272;2022-09-03T06:26:47;26.36;48.44
71514;DHT22;59335;46.652;21.272;2022-09-03T06:29:50;26.34;48.48
71514;DHT22;59335;46.652;21.272;2022-09-03T06:32:53;26.34;48.50
71514;DHT22;59335;46.652;21.272;2022-09-03T06:35:57;26.34;48.46
71514;DHT22;59335;46.652;21.272;2022-09-03T06:38:59;26.36;48.40
71514;DHT22;59335;46.652;21.272;2022-09-03T06:42:02;26.37;48.42
71514;DHT22;59335;46.652;21.272;2022-09-03T06:45:10;26.36;48.39
71514;DHT22;59335;46.652;21.272;2022-09-03T06:48:13;26.44;48.29
71514;DHT22;59335;46.652;21.272;2022-09-03T06:51:21;26.48;48.17
71514;DHT22;59335;46.652;21.272;2022-09-03T06:54:24;26.51;48.13
71514;DHT22;59335;46.652;21.272;2022-09-03T06:57:27;26.52;48.11
71514;DHT22;59335;46.652;21.272;2022-09-03T07:00:29;26.51;48.08
71514;DHT22;59335;46.652;21.272;2022-09-03T07:03:37;26.52;48.07
71514;DHT22;59335;46.652;21.272;2022-09-03T07:06:40;26.52;48.04
71514;DHT22;59335;46.652;21.272;2022-09-03T07:09:44;26.57;47.95
71514;DHT22;59335;46.652;21.272;2022-09-03T07:12:49;26.59;47.97
71514;DHT22;59335;46.652;21.272;2022-09-03T07:15:59;26.61;47.83
71514;DHT22;59335;46.652;21.272;2022-09-03T07:19:06;26.64;47.77
71514;DHT22;59335;46.652;21.272;2022-09-03T07:22:10;26.72;47.69
71514;DHT22;59335;46.652;21.272;2022-09-03T07:25:13;26.75;47.62
71514;DHT22;59335;46.652;21.272;2022-09-03T07:28:15;26.78;47.59
71514;DHT22;59335;46.652;21.272;2022-09-03T07:31:24;26.78;47.59
71514;DHT22;59335;46.652;21.272;2022-09-03T07:34:27;26.79;47.58
71514;DHT22;59335;46.652;21.272;2022-09-03T07:37:30;26.76;47.53
71514;DHT22;59335;46.652;21.272;2022-09-03T07:40:32;26.78;47.54
71514;DHT22;59335;46.652;21.272;2022-09-03T07:43:37;26.82;47.47
71514;DHT22;59335;46.652;21.272;2022-09-03T07:46:44;26.82;47.42
71514;DHT22;59335;46.652;21.272;2022-09-03T07:49:49;26.88;47.40
71514;DHT22;59335;46.652;21.272;2022-09-03T07:52:56;26.91;47.39
71514;DHT22;59335;46.652;21.272;2022-09-03T07:56:04;26.93;47.34
71514;DHT22;59335;46.652;21.272;2022-09-03T07:59:08;26.93;47.34
71514;DHT22;59335;46.652;21.272;2022-09-03T08:02:10;26.98;47.35
71514;DHT22;59335;46.652;21.272;2022-09-03T08:05:13;26.92;47.32
71514;DHT22;59335;46.652;21.272;2022-09-03T08:08:16;26.93;47.31
71514;DHT22;59335;46.652;21.272;2022-09-03T08:11:20;26.91;47.30
71514;DHT22;59335;46.652;21.272;2022-09-03T08:14:23;26.91;47.39
71514;DHT22;59335;46.652;21.272;2022-09-03T08:17:26;26.92;47.34
71514;DHT22;59335;46.652;21.272;2022-09-03T08:20:28;26.92;47.28
71514;DHT22;59335;46.652;21.272;2022-09-03T08:23:36;26.93;47.32
71514;DHT22;59335;46.652;21.272;2022-09-03T08:26:40;26.91;47.30
71514;DHT22;59335;46.652;21.272;2022-09-03T08:29:51;26.92;47.32
71514;DHT22;59335;46.652;21.272;2022-09-03T08:32:55;26.92;47.32
71514;DHT22;59335;46.652;21.272;2022-09-03T08:35:58;26.92;47.32
71514;DHT22;59335;46.652;21.272;2022-09-03T08:39:06;26.89;47.34
71514;DHT22;59335;46.652;21.272;2022-09-03T08:42:25;26.92;47.24
71514;DHT22;59335;46.652;21.272;2022-09-03T08:45:30;26.91;47.27
71514;DHT22;59335;46.652;21.272;2022-09-03T08:48:35;26.93;47.24
71514;DHT22;59335;46.652;21.272;2022-09-03T08:51:38;26.96;47.18
71514;DHT22;59335;46.652;21.272;2022-09-03T08:54:42;26.96;47.08
71514;DHT22;59335;46.652;21.272;2022-09-03T08:58:13;26.98;47.16
71514;DHT22;59335;46.652;21.272;2022-09-03T09:01:29;26.99;47.12
71514;DHT22;59335;46.652;21.272;2022-09-03T09:20:50;26.96;47.08
71514;DHT22;59335;46.652;21.272;2022-09-03T09:24:00;26.96;47.12
71514;DHT22;59335;46.652;21.272;2022-09-03T09:27:05;26.93;47.08
71514;DHT22;59335;46.652;21.272;2022-09-03T09:30:09;26.93;47.13
71514;DHT22;59335;46.652;21.272;2022-09-03T09:33:16;26.93;47.15
71514;DHT22;59335;46.652;21.272;2022-09-03T09:36:20;26.93;47.14
71514;DHT22;59335;46.652;21.272;2022-09-03T09:39:24;26.95;47.09
71514;DHT22;59335;46.652;21.272;2022-09-03T09:42:27;26.93;47.07
71514;DHT22;59335;46.652;21.272;2022-09-03T09:45:32;26.93;47.02
71514;DHT22;59335;46.652;21.272;2022-09-03T09:48:38;26.93;47.00
71514;DHT22;59335;46.652;21.272;2022-09-03T09:51:47;26.93;47.01
71514;DHT22;59335;46.652;21.272;2022-09-03T09:54:52;26.92;46.97
71514;DHT22;59335;46.652;21.272;2022-09-03T09:58:05;26.93;47.00
71514;DHT22;59335;46.652;21.272;2022-09-03T10:01:22;26.95;46.94
71514;DHT22;59335;46.652;21.272;2022-09-03T10:04:29;26.89;46.92
71514;DHT22;59335;46.652;21.272;2022-09-03T10:07:34;26.91;46.76
71514;DHT22;59335;46.652;21.272;2022-09-03T10:10:43;26.92;46.74
71514;DHT22;59335;46.652;21.272;2022-09-03T10:13:48;26.91;46.74
71514;DHT22;59335;46.652;21.272;2022-09-03T10:17:00;26.89;46.66
71514;DHT22;59335;46.652;21.272;2022-09-03T10:20:47;26.89;46.68
71514;DHT22;59335;46.652;21.272;2022-09-03T10:23:58;26.89;46.62
71514;DHT22;59335;46.652;21.272;2022-09-03T10:27:09;26.89;46.65
71514;DHT22;59335;46.652;21.272;2022-09-03T10:30:14;26.88;46.58
71514;DHT22;59335;46.652;21.272;2022-09-03T10:33:24;26.88;46.54
71514;DHT22;59335;46.652;21.272;2022-09-03T10:47:04;26.86;46.13
71514;DHT22;59335;46.652;21.272;2022-09-03T10:50:43;26.85;46.06
71514;DHT22;59335;46.652;21.272;2022-09-03T11:00:14;26.86;45.96
71514;DHT22;59335;46.652;21.272;2022-09-03T11:03:42;26.85;45.84
71514;DHT22;59335;46.652;21.272;2022-09-03T11:06:54;26.86;45.76
71514;DHT22;59335;46.652;21.272;2022-09-03T11:13:39;26.84;45.66
71514;DHT22;59335;46.652;21.272;2022-09-03T11:16:47;26.84;45.70
71514;DHT22;59335;46.652;21.272;2022-09-03T11:20:03;26.84;45.72
71514;DHT22;59335;46.652;21.272;2022-09-03T11:23:10;26.81;45.81
71514;DHT22;59335;46.652;21.272;2022-09-03T11:26:17;26.84;45.78
71514;DHT22;59335;46.652;21.272;2022-09-03T11:29:31;26.84;45.79
71514;DHT22;59335;46.652;21.272;2022-09-03T11:35:42;26.84;45.75
71514;DHT22;59335;46.652;21.272;2022-09-03T11:38:44;26.84;45.63
71514;DHT22;59335;46.652;21.272;2022-09-03T11:41:58;26.85;45.58
71514;DHT22;59335;46.652;21.272;2022-09-03T11:48:39;26.84;45.31
71514;DHT22;59335;46.652;21.272;2022-09-03T11:52:03;26.82;45.26
71514;DHT22;59335;46.652;21.272;2022-09-03T11:55:11;26.82;45.30
71514;DHT22;59335;46.652;21.272;2022-09-03T11:58:34;26.82;45.39
71514;DHT22;59335;46.652;21.272;2022-09-03T12:01:42;26.82;45.35
71514;DHT22;59335;46.652;21.272;2022-09-03T12:04:55;26.84;45.35
71514;DHT22;59335;46.652;21.272;2022-09-03T12:11:36;26.84;45.47
71514;DHT22;59335;46.652;21.272;2022-09-03T12:17:52;26.84;45.47
71514;DHT22;59335;46.652;21.272;2022-09-03T12:21:16;26.82;45.43
71514;DHT22;59335;46.652;21.272;2022-09-03T12:24:18;26.81;45.36
71514;DHT22;59335;46.652;21.272;2022-09-03T12:27:23;26.81;45.34
71514;DHT22;59335;46.652;21.272;2022-09-03T12:30:27;26.79;45.28
71514;DHT22;59335;46.652;21.272;2022-09-03T12:33:31;26.79;45.22
71514;DHT22;59335;46.652;21.272;2022-09-03T12:36:40;26.81;45.20
71514;DHT22;59335;46.652;21.272;2022-09-03T12:39:52;26.81;45.13
71514;DHT22;59335;46.652;21.272;2022-09-03T12:43:14;26.81;45.12
71514;DHT22;59335;46.652;21.272;2022-09-03T12:46:37;26.84;45.14
71514;DHT22;59335;46.652;21.272;2022-09-03T12:49:55;26.79;45.05
71514;DHT22;59335;46.652;21.272;2022-09-03T12:53:00;26.81;45.01
71514;DHT22;59335;46.652;21.272;2022-09-03T12:56:04;26.82;44.97
71514;DHT22;59335;46.652;21.272;2022-09-03T12:59:15;26.81;44.85
71514;DHT22;59335;46.652;21.272;2022-09-03T13:02:29;26.79;44.81
71514;DHT22;59335;46.652;21.272;2022-09-03T13:06:06;26.81;44.79
71514;DHT22;59335;46.652;21.272;2022-09-03T13:09:13;26.81;44.74
71514;DHT22;59335;46.652;21.272;2022-09-03T13:12:28;26.76;44.84
71514;DHT22;59335;46.652;21.272;2022-09-03T13:15:34;26.78;44.93
71514;DHT22;59335;46.652;21.272;2022-09-03T13:22:06;26.79;44.86
71514;DHT22;59335;46.652;21.272;2022-09-03T13:25:23;26.78;44.81
71514;DHT22;59335;46.652;21.272;2022-09-03T13:28:43;26.76;44.85
71514;DHT22;59335;46.652;21.272;2022-09-03T13:31:54;26.74;44.70
71514;DHT22;59335;46.652;21.272;2022-09-03T13:41:48;26.76;44.56
71514;DHT22;59335;46.652;21.272;2022-09-03T13:48:25;26.74;44.52
71514;DHT22;59335;46.652;21.272;2022-09-03T13:51:55;26.75;44.62
71514;DHT22;59335;46.652;21.272;2022-09-03T13:55:24;26.78;44.48
71514;DHT22;59335;46.652;21.272;2022-09-03T13:58:45;26.74;44.52
71514;DHT22;59335;46.652;21.272;2022-09-03T14:01:57;26.74;44.55
71514;DHT22;59335;46.652;21.272;2022-09-03T14:05:14;26.75;44.49
71514;DHT22;59335;46.652;21.272;2022-09-03T14:15:14;26.72;44.80
71514;DHT22;59335;46.652;21.272;2022-09-03T14:21:53;26.69;45.00
71514;DHT22;59335;46.652;21.272;2022-09-03T14:25:02;26.71;44.88
71514;DHT22;59335;46.652;21.272;2022-09-03T14:41:50;26.71;44.45
71514;DHT22;59335;46.652;21.272;2022-09-03T14:48:34;26.72;44.54
71514;DHT22;59335;46.652;21.272;2022-09-03T14:58:44;26.69;44.64
71514;DHT22;59335;46.652;21.272;2022-09-03T15:05:41;26.65;44.68
71514;DHT22;59335;46.652;21.272;2022-09-03T15:12:05;26.67;44.74
71514;DHT22;59335;46.652;21.272;2022-09-03T15:18:31;26.64;44.71
71514;DHT22;59335;46.652;21.272;2022-09-03T15:25:18;26.64;44.67
71514;DHT22;59335;46.652;21.272;2022-09-03T15:28:29;26.64;44.69
71514;DHT22;59335;46.652;21.272;2022-09-03T15:31:58;26.59;44.65
71514;DHT22;59335;46.652;21.272;2022-09-03T15:35:08;26.62;44.69
71514;DHT22;59335;46.652;21.272;2022-09-03T15:42:16;26.62;44.84
71514;DHT22;59335;46.652;21.272;2022-09-03T15:55:25;26.59;44.94
71514;DHT22;59335;46.652;21.272;2022-09-03T15:58:34;26.59;44.97
71514;DHT22;59335;46.652;21.272;2022-09-03T16:05:17;26.59;45.07
71514;DHT22;59335;46.652;21.272;2022-09-03T16:08:31;26.57;45.07
71514;DHT22;59335;46.652;21.272;2022-09-03T16:12:15;26.58;45.01
71514;DHT22;59335;46.652;21.272;2022-09-03T16:15:31;26.57;45.08
71514;DHT22;59335;46.652;21.272;2022-09-03T16:18:39;26.55;45.10
71514;DHT22;59335;46.652;21.272;2022-09-03T16:21:57;26.55;45.10
71514;DHT22;59335;46.652;21.272;2022-09-03T16:25:03;26.55;45.12
71514;DHT22;59335;46.652;21.272;2022-09-03T16:28:13;26.54;45.08
71514;DHT22;59335;46.652;21.272;2022-09-03T16:35:00;26.55;45.11
71514;DHT22;59335;46.652;21.272;2022-09-03T16:38:30;26.52;45.12
71514;DHT22;59335;46.652;21.272;2022-09-03T16:59:15;26.52;45.30
71514;DHT22;59335;46.652;21.272;2022-09-03T17:17:02;26.49;45.44
71514;DHT22;59335;46.652;21.272;2022-09-03T17:24:01;26.45;45.55
71514;DHT22;59335;46.652;21.272;2022-09-03T17:40:19;26.47;45.61
71514;DHT22;59335;46.652;21.272;2022-09-03T17:43:57;26.47;45.62
71514;DHT22;59335;46.652;21.272;2022-09-03T17:50:29;26.49;45.62
71514;DHT22;59335;46.652;21.272;2022-09-03T17:53:43;26.49;45.60
71514;DHT22;59335;46.652;21.272;2022-09-03T17:56:50;26.48;45.66
71514;DHT22;59335;46.652;21.272;2022-09-03T18:00:01;26.47;45.63
71514;DHT22;59335;46.652;21.272;2022-09-03T18:03:18;26.47;45.70
71514;DHT22;59335;46.652;21.272;2022-09-03T18:06:35;26.41;45.75
71514;DHT22;59335;46.652;21.272;2022-09-03T18:13:59;26.45;45.75
71514;DHT22;59335;46.652;21.272;2022-09-03T18:17:12;26.48;45.70
71514;DHT22;59335;46.652;21.272;2022-09-03T18:20:15;26.47;45.71
71514;DHT22;59335;46.652;21.272;2022-09-03T18:24:20;26.47;45.72
71514;DHT22;59335;46.652;21.272;2022-09-03T18:27:53;26.43;45.81
71514;DHT22;59335;46.652;21.272;2022-09-03T18:31:17;26.41;45.78
71514;DHT22;59335;46.652;21.272;2022-09-03T18:34:39;26.44;45.82
71514;DHT22;59335;46.652;21.272;2022-09-03T18:38:02;26.40;45.83
71514;DHT22;59335;46.652;21.272;2022-09-03T18:41:44;26.41;45.82
71514;DHT22;59335;46.652;21.272;2022-09-03T18:45:49;26.44;45.81
71514;DHT22;59335;46.652;21.272;2022-09-03T18:49:34;26.40;45.85
71514;DHT22;59335;46.652;21.272;2022-09-03T18:53:01;26.38;45.88
71514;DHT22;59335;46.652;21.272;2022-09-03T18:56:57;26.37;45.93
71514;DHT22;59335;46.652;21.272;2022-09-03T19:00:18;26.38;45.92
71514;DHT22;59335;46.652;21.272;2022-09-03T19:07:54;26.40;45.90
71514;DHT22;59335;46.652;21.272;2022-09-03T19:11:31;26.38;45.91
71514;DHT22;59335;46.652;21.272;2022-09-03T19:22:27;26.41;45.88
71514;DHT22;59335;46.652;21.272;2022-09-03T19:25:51;26.37;45.91
71514;DHT22;59335;46.652;21.272;2022-09-03T19:29:33;26.36;45.97
71514;DHT22;59335;46.652;21.272;2022-09-03T19:36:55;26.36;45.93
71514;DHT22;59335;46.652;21.272;2022-09-03T19:47:35;26.38;45.97
71514;DHT22;59335;46.652;21.272;2022-09-03T19:51:06;26.37;46.01
71514;DHT22;59335;46.652;21.272;2022-09-03T19:54:29;26.36;46.06
71514;DHT22;59335;46.652;21.272;2022-09-03T19:57:58;26.34;46.05
71514;DHT22;59335;46.652;21.272;2022-09-03T20:01:42;26.36;46.02
71514;DHT22;59335;46.652;21.272;2022-09-03T20:05:07;26.34;46.06
71514;DHT22;59335;46.652;21.272;2022-09-03T20:08:31;26.37;45.99
71514;DHT22;59335;46.652;21.272;2022-09-03T20:11:56;26.34;46.04
71514;DHT22;59335;46.652;21.272;2022-09-03T20:15:03;26.34;46.01
71514;DHT22;59335;46.652;21.272;2022-09-03T20:25:44;26.34;46.00
71514;DHT22;59335;46.652;21.272;2022-09-03T20:32:17;26.36;46.06
71514;DHT22;59335;46.652;21.272;2022-09-03T20:35:36;26.33;46.10
71514;DHT22;59335;46.652;21.272;2022-09-03T20:39:05;26.33;46.10
71514;DHT22;59335;46.652;21.272;2022-09-03T20:52:17;26.33;46.11
71514;DHT22;59335;46.652;21.272;2022-09-03T20:55:28;26.31;46.09
71514;DHT22;59335;46.652;21.272;2022-09-03T21:01:58;26.30;46.14
71514;DHT22;59335;46.652;21.272;2022-09-03T21:05:24;26.31;46.14
71514;DHT22;59335;46.652;21.272;2022-09-03T21:08:48;26.33;46.10
71514;DHT22;59335;46.652;21.272;2022-09-03T21:15:42;26.26;46.15
71514;DHT22;59335;46.652;21.272;2022-09-03T21:25:40;26.30;46.16
71514;DHT22;59335;46.652;21.272;2022-09-03T21:28:44;26.24;46.21
71514;DHT22;59335;46.652;21.272;2022-09-03T21:32:01;26.28;46.15
71514;DHT22;59335;46.652;21.272;2022-09-03T21:35:12;26.27;46.14
71514;DHT22;59335;46.652;21.272;2022-09-03T21:38:20;26.28;46.19
71514;DHT22;59335;46.652;21.272;2022-09-03T21:41:32;26.28;46.13
71514;DHT22;59335;46.652;21.272;2022-09-03T21:47:46;26.24;46.20
71514;DHT22;59335;46.652;21.272;2022-09-03T21:50:55;26.28;46.15
71514;DHT22;59335;46.652;21.272;2022-09-03T21:54:00;26.21;46.26
71514;DHT22;59335;46.652;21.272;2022-09-03T22:00:19;26.23;46.22
71514;DHT22;59335;46.652;21.272;2022-09-03T22:03:30;26.26;46.24
71514;DHT22;59335;46.652;21.272;2022-09-03T22:14:34;26.26;46.18
71514;DHT22;59335;46.652;21.272;2022-09-03T22:17:47;26.23;46.22
71514;DHT22;59335;46.652;21.272;2022-09-03T22:24:16;26.27;46.14
71514;DHT22;59335;46.652;21.272;2022-09-03T22:27:36;26.24;46.19
71514;DHT22;59335;46.652;21.272;2022-09-03T22:30:49;26.20;46.25
71514;DHT22;59335;46.652;21.272;2022-09-03T22:37:04;26.23;46.13
71514;DHT22;59335;46.652;21.272;2022-09-03T22:50:24;26.21;46.10
71514;DHT22;59335;46.652;21.272;2022-09-03T22:54:09;26.18;46.17
71514;DHT22;59335;46.652;21.272;2022-09-03T22:57:16;26.20;46.17
71514;DHT22;59335;46.652;21.272;2022-09-03T23:00:20;26.20;46.10
71514;DHT22;59335;46.652;21.272;2022-09-03T23:03:28;26.23;46.03
71514;DHT22;59335;46.652;21.272;2022-09-03T23:06:48;26.18;46.13
71514;DHT22;59335;46.652;21.272;2022-09-03T23:09:56;26.17;46.17
71514;DHT22;59335;46.652;21.272;2022-09-03T23:13:07;26.21;46.04
71514;DHT22;59335;46.652;21.272;2022-09-03T23:16:18;26.20;46.08
71514;DHT22;59335;46.652;21.272;2022-09-03T23:19:34;26.16;46.10
71514;DHT22;59335;46.652;21.272;2022-09-03T23:22:47;26.17;46.07
71514;DHT22;59335;46.652;21.272;2022-09-03T23:26:10;26.16;46.13
71514;DHT22;59335;46.652;21.272;2022-09-03T23:29:19;26.16;46.12
71514;DHT22;59335;46.652;21.272;2022-09-03T23:32:27;26.17;46.12
71514;DHT22;59335;46.652;21.272;2022-09-03T23:35:47;26.18;46.00
71514;DHT22;59335;46.652;21.272;2022-09-03T23:46:58;26.14;46.03
71514;DHT22;59335;46.652;21.272;2022-09-03T23:50:45;26.17;46.02
71514;DHT22;59335;46.652;21.272;2022-09-03T23:57:38;26.14;46.06
